Time;durP1;ratioP1;P1;durP2;ratioP2;P2;SDS_P1;SDS_P2;PMS_P1;PMS_P2;Temp;Humidity;BMP_temperature;BMP_pressure;BME280_temperature;BME280_humidity;BME280_pressure;Samples;Min_cycle;Max_cycle;Signal;HPM_P1;HPM_P2
2021/01/06 00:02:06;;;;;;;73.55;30.20;;;1.90;93.60;;;;;;5045610;28;20025;-68
2021/01/06 00:04:32;;;;;;;59.03;26.27;;;1.90;93.50;;;;;;5050756;28;20025;-68
2021/01/06 00:06:57;;;;;;;62.97;27.85;;;1.90;93.50;;;;;;5042113;28;20104;-69
2021/01/06 00:09:23;;;;;;;64.10;27.70;;;1.90;93.50;;;;;;5050296;28;20028;-67
2021/01/06 00:11:49;;;;;;;60.83;26.98;;;1.90;93.50;;;;;;5050810;28;20435;-67
2021/01/06 00:14:15;;;;;;;58.40;26.55;;;1.90;93.60;;;;;;5051478;28;20025;-68
2021/01/06 00:16:42;;;;;;;56.72;24.83;;;1.90;93.60;;;;;;5039883;28;20490;-68
2021/01/06 00:19:12;;;;;;;58.85;25.05;;;1.90;93.60;;;;;;5047073;28;20532;-68
2021/01/06 00:21:39;;;;;;;61.60;26.55;;;1.90;93.70;;;;;;5040262;28;20025;-67
2021/01/06 00:24:06;;;;;;;63.83;28.00;;;1.90;93.40;;;;;;5041718;28;20455;-68
2021/01/06 00:26:36;;;;;;;55.40;23.80;;;1.90;93.50;;;;;;5041408;28;20500;-68
2021/01/06 00:29:02;;;;;;;60.05;25.50;;;1.90;93.50;;;;;;5049242;28;20124;-69
2021/01/06 00:31:28;;;;;;;67.32;27.77;;;1.80;93.50;;;;;;5048723;28;20133;-68
2021/01/06 00:33:53;;;;;;;63.67;25.58;;;1.90;93.60;;;;;;5048260;28;20330;-69
2021/01/06 00:36:21;;;;;;;63.45;26.20;;;1.90;93.60;;;;;;5044399;28;20024;-69
2021/01/06 00:38:49;;;;;;;51.65;24.02;;;1.90;93.70;;;;;;5049114;28;20494;-70
2021/01/06 00:41:23;;;;;;;60.35;26.65;;;1.90;93.70;;;;;;5047745;28;20048;-68
2021/01/06 00:43:52;;;;;;;52.13;24.52;;;1.90;93.60;;;;;;5039558;28;20112;-70
2021/01/06 00:46:18;;;;;;;61.05;26.05;;;1.90;93.70;;;;;;5039884;28;20029;-69
2021/01/06 00:48:44;;;;;;;62.65;28.55;;;1.90;93.60;;;;;;5041604;28;20068;-68
2021/01/06 00:51:09;;;;;;;64.70;26.60;;;1.90;93.60;;;;;;5041126;28;20503;-69
2021/01/06 00:53:35;;;;;;;56.75;26.15;;;1.90;93.70;;;;;;5048122;28;20021;-69
2021/01/06 00:56:01;;;;;;;58.38;26.00;;;1.90;93.60;;;;;;5043704;28;20049;-69
2021/01/06 00:58:26;;;;;;;67.40;28.67;;;1.90;93.70;;;;;;5050568;28;20107;-68
2021/01/06 01:00:53;;;;;;;61.38;26.85;;;1.90;93.80;;;;;;5047469;28;20025;-68
2021/01/06 01:03:18;;;;;;;70.60;29.17;;;2.00;93.70;;;;;;5048670;28;20488;-69
2021/01/06 01:05:45;;;;;;;99.90;39.13;;;1.90;93.70;;;;;;5038813;28;20029;-69
2021/01/06 01:08:11;;;;;;;69.07;30.05;;;1.90;93.70;;;;;;5043756;28;20033;-68
2021/01/06 01:10:37;;;;;;;67.00;25.98;;;2.00;93.70;;;;;;5047807;28;20047;-68
2021/01/06 01:13:09;;;;;;;65.95;29.77;;;2.00;93.80;;;;;;5039021;28;20092;-69
2021/01/06 01:15:37;;;;;;;61.58;26.77;;;2.00;93.80;;;;;;5052364;28;20083;-68
2021/01/06 01:18:04;;;;;;;64.65;28.42;;;2.00;93.70;;;;;;5052575;28;20550;-68
2021/01/06 01:20:30;;;;;;;59.05;25.17;;;2.00;93.70;;;;;;5052405;28;20071;-69
2021/01/06 01:22:56;;;;;;;62.17;27.33;;;2.00;93.80;;;;;;5046096;28;20036;-69
2021/01/06 01:25:25;;;;;;;57.60;25.25;;;2.00;93.70;;;;;;5040667;28;20030;-68
2021/01/06 01:27:51;;;;;;;59.83;26.40;;;2.00;93.70;;;;;;5048343;28;20087;-68
2021/01/06 01:30:23;;;;;;;59.80;24.95;;;1.90;93.60;;;;;;5041758;28;20123;-68
2021/01/06 01:32:50;;;;;;;57.70;23.33;;;1.90;93.60;;;;;;5049517;28;20025;-68
2021/01/06 01:35:23;;;;;;;59.45;25.58;;;2.00;93.60;;;;;;5041290;28;20043;-68
2021/01/06 01:37:49;;;;;;;63.92;27.40;;;1.90;93.70;;;;;;5044915;28;20025;-68
2021/01/06 01:40:21;;;;;;;60.03;25.90;;;1.90;93.70;;;;;;5046352;28;20099;-68
2021/01/06 01:42:51;;;;;;;65.82;27.10;;;1.90;93.70;;;;;;5046138;28;20033;-68
2021/01/06 01:45:17;;;;;;;60.47;27.13;;;2.00;93.90;;;;;;5050378;28;20037;-68
2021/01/06 01:47:54;;;;;;;63.15;26.83;;;2.00;93.80;;;;;;5041523;28;20029;-68
2021/01/06 01:50:22;;;;;;;71.65;29.92;;;2.00;93.70;;;;;;5043896;28;20495;-68
2021/01/06 01:52:51;;;;;;;58.95;24.33;;;2.00;93.80;;;;;;5047095;28;20036;-68
2021/01/06 01:55:20;;;;;;;60.63;26.13;;;2.00;93.80;;;;;;5053684;28;20269;-68
2021/01/06 01:57:59;;;;;;;58.50;24.95;;;2.00;93.80;;;;;;5054949;28;20029;-68
2021/01/06 02:00:29;;;;;;;64.97;25.38;;;2.00;93.80;;;;;;5045399;28;20411;-68
2021/01/06 02:02:57;;;;;;;62.95;26.98;;;2.00;93.90;;;;;;5051845;28;20033;-69
2021/01/06 02:05:33;;;;;;;65.60;26.00;;;2.00;94.00;;;;;;5044437;28;20482;-68
2021/01/06 02:08:25;;;;;;;59.33;25.00;;;2.10;94.00;;;;;;5052564;28;20025;-68
2021/01/06 02:10:58;;;;;;;72.05;28.23;;;2.10;93.90;;;;;;5049038;28;20068;-69
2021/01/06 02:13:34;;;;;;;62.80;25.15;;;2.10;93.90;;;;;;5038574;28;20033;-68
2021/01/06 02:16:18;;;;;;;63.40;25.38;;;2.10;94.00;;;;;;5048807;28;20113;-68
2021/01/06 02:18:43;;;;;;;60.80;26.77;;;2.10;93.90;;;;;;5041740;28;20066;-68
2021/01/06 02:21:21;;;;;;;67.50;25.75;;;2.10;93.80;;;;;;5051834;28;20032;-68
2021/01/06 02:23:50;;;;;;;65.43;26.25;;;2.10;93.70;;;;;;5047652;28;20025;-70
2021/01/06 02:26:17;;;;;;;55.83;23.60;;;2.10;93.70;;;;;;5048177;28;20076;-67
2021/01/06 02:28:44;;;;;;;61.20;26.60;;;2.00;93.70;;;;;;5051090;28;20064;-68
2021/01/06 02:31:10;;;;;;;56.05;23.77;;;2.00;93.60;;;;;;5038683;28;20045;-67
2021/01/06 02:33:36;;;;;;;66.78;26.20;;;2.00;93.60;;;;;;5036711;28;20040;-68
2021/01/06 02:36:02;;;;;;;55.20;22.45;;;2.00;93.60;;;;;;5048862;28;20029;-68
2021/01/06 02:38:29;;;;;;;66.65;27.02;;;2.00;93.70;;;;;;5044593;28;20025;-67
2021/01/06 02:40:56;;;;;;;57.33;24.75;;;2.00;93.80;;;;;;5051303;28;20041;-67
2021/01/06 02:43:24;;;;;;;61.35;23.23;;;2.00;93.80;;;;;;5042390;28;20029;-68
2021/01/06 02:45:50;;;;;;;66.95;26.10;;;2.00;93.70;;;;;;5039552;28;20025;-69
2021/01/06 02:48:17;;;;;;;75.63;28.35;;;2.00;93.60;;;;;;5048922;28;20071;-68
2021/01/06 02:50:45;;;;;;;72.00;28.02;;;1.90;93.70;;;;;;5044628;28;20033;-68
2021/01/06 02:53:19;;;;;;;72.40;29.00;;;2.00;93.90;;;;;;5039445;28;20081;-68
2021/01/06 02:55:47;;;;;;;68.07;25.50;;;2.00;94.00;;;;;;5049367;28;20028;-68
2021/01/06 02:58:17;;;;;;;79.22;29.92;;;2.00;94.00;;;;;;5050183;28;20174;-68
2021/01/06 03:00:43;;;;;;;78.93;31.05;;;2.00;93.90;;;;;;5045323;28;20021;-68
2021/01/06 03:03:12;;;;;;;77.32;30.25;;;2.00;93.90;;;;;;5050754;28;20029;-68
2021/01/06 03:05:39;;;;;;;68.32;29.00;;;2.00;93.90;;;;;;5037909;28;20034;-68
2021/01/06 03:08:13;;;;;;;73.70;27.40;;;2.00;93.90;;;;;;5048862;28;20029;-68
2021/01/06 03:10:39;;;;;;;66.55;26.10;;;2.00;93.90;;;;;;5050143;28;20124;-67
2021/01/06 03:13:06;;;;;;;65.97;26.92;;;2.00;94.00;;;;;;5049444;28;20029;-68
2021/01/06 03:15:32;;;;;;;60.63;23.25;;;2.00;94.00;;;;;;5046237;28;20490;-68
2021/01/06 03:17:58;;;;;;;76.78;29.42;;;2.00;93.90;;;;;;5047623;28;20033;-69
2021/01/06 03:20:27;;;;;;;78.25;27.65;;;2.00;93.80;;;;;;5047219;28;20479;-67
2021/01/06 03:23:08;;;;;;;74.78;27.33;;;2.00;93.90;;;;;;5051897;28;20029;-68
2021/01/06 03:25:35;;;;;;;79.43;28.80;;;2.00;94.00;;;;;;5046000;28;20025;-67
2021/01/06 03:28:01;;;;;;;68.88;24.58;;;2.00;93.90;;;;;;5045208;28;20524;-68
2021/01/06 03:30:32;;;;;;;66.15;23.80;;;2.00;93.90;;;;;;5038423;28;20515;-67
2021/01/06 03:33:24;;;;;;;85.40;28.75;;;2.00;94.20;;;;;;5044787;28;20021;-68
2021/01/06 03:36:00;;;;;;;62.28;23.85;;;2.00;94.00;;;;;;5047409;28;20021;-68
2021/01/06 03:38:35;;;;;;;65.72;25.05;;;2.00;94.20;;;;;;5049754;28;20108;-68
2021/01/06 03:41:05;;;;;;;62.95;23.67;;;2.00;94.00;;;;;;5046143;28;20045;-68
2021/01/06 03:43:34;;;;;;;75.25;26.10;;;2.00;93.90;;;;;;5049280;28;20036;-69
2021/01/06 03:46:02;;;;;;;72.53;26.63;;;2.00;94.00;;;;;;5049111;28;20028;-68
2021/01/06 03:48:49;;;;;;;74.60;27.42;;;2.00;94.10;;;;;;5039739;28;20029;-68
2021/01/06 03:51:28;;;;;;;63.78;25.63;;;2.00;94.10;;;;;;5039875;28;20084;-68
2021/01/06 03:53:59;;;;;;;83.20;28.38;;;2.00;94.10;;;;;;5043172;28;20082;-68
2021/01/06 03:56:32;;;;;;;81.68;28.45;;;2.00;94.00;;;;;;5047696;28;20072;-68
2021/01/06 03:59:05;;;;;;;83.10;30.30;;;2.00;94.00;;;;;;5038406;28;20044;-68
2021/01/06 04:02:19;;;;;;;78.07;29.00;;;2.00;94.00;;;;;;5049483;28;20027;-68
2021/01/06 04:05:07;;;;;;;78.43;29.90;;;2.00;94.00;;;;;;5041820;28;20166;-68
2021/01/06 04:07:42;;;;;;;83.40;31.17;;;2.00;94.20;;;;;;5039400;28;20036;-67
2021/01/06 04:10:20;;;;;;;75.70;27.75;;;2.10;94.40;;;;;;5050806;28;20468;-67
2021/01/06 04:12:45;;;;;;;81.25;31.48;;;2.10;94.30;;;;;;5049831;28;20090;-67
2021/01/06 04:15:14;;;;;;;73.32;27.30;;;2.10;94.20;;;;;;5051376;28;20025;-68
2021/01/06 04:17:45;;;;;;;87.10;29.85;;;2.10;94.10;;;;;;5042187;28;20026;-67
2021/01/06 04:20:15;;;;;;;89.82;32.92;;;2.10;94.00;;;;;;5045271;28;20548;-68
2021/01/06 04:22:51;;;;;;;70.57;24.33;;;2.00;94.10;;;;;;5043075;28;20372;-68
2021/01/06 04:25:32;;;;;;;101.28;30.48;;;2.10;94.10;;;;;;5049780;28;20083;-68
2021/01/06 04:28:19;;;;;;;88.63;31.42;;;2.00;94.00;;;;;;5045149;28;20034;-67
2021/01/06 04:30:49;;;;;;;82.13;28.65;;;2.00;94.10;;;;;;5042466;28;20042;-68
2021/01/06 04:33:15;;;;;;;88.28;29.88;;;2.00;94.20;;;;;;5049552;28;20400;-67
2021/01/06 04:35:41;;;;;;;96.55;32.08;;;2.00;94.20;;;;;;5045173;28;20022;-67
2021/01/06 04:38:07;;;;;;;93.82;29.25;;;2.00;94.20;;;;;;5044469;28;20570;-68
2021/01/06 04:40:42;;;;;;;95.40;31.55;;;2.00;94.20;;;;;;5033527;28;20140;-69
2021/01/06 04:43:42;;;;;;;99.23;30.43;;;2.00;94.20;;;;;;5042407;28;20033;-68
2021/01/06 04:46:32;;;;;;;80.82;27.65;;;2.00;94.20;;;;;;5037225;28;20390;-69
2021/01/06 04:49:29;;;;;;;84.88;27.52;;;2.00;94.20;;;;;;5037666;28;20479;-68
2021/01/06 04:52:16;;;;;;;80.65;27.67;;;2.00;94.10;;;;;;5036289;28;20071;-68
2021/01/06 04:55:13;;;;;;;95.35;30.02;;;2.00;94.10;;;;;;5050464;28;20075;-68
2021/01/06 04:57:44;;;;;;;119.55;38.85;;;1.90;94.10;;;;;;5040268;28;20033;-68
2021/01/06 05:00:51;;;;;;;119.85;41.30;;;1.90;94.20;;;;;;5049671;28;20176;-68
2021/01/06 05:03:49;;;;;;;125.53;42.70;;;1.90;94.40;;;;;;5042782;28;20498;-68
2021/01/06 05:06:17;;;;;;;103.90;37.63;;;1.90;94.40;;;;;;5050070;28;20108;-69
2021/01/06 05:08:52;;;;;;;122.68;37.78;;;1.90;94.50;;;;;;5047166;28;20049;-74
2021/01/06 05:11:29;;;;;;;92.38;31.63;;;2.00;94.60;;;;;;5041098;28;20399;-70
2021/01/06 05:13:58;;;;;;;106.07;32.92;;;2.00;94.60;;;;;;5060201;28;20037;-70
2021/01/06 05:16:39;;;;;;;102.63;31.75;;;2.00;94.60;;;;;;5044100;28;20036;-69
2021/01/06 05:19:13;;;;;;;97.00;33.17;;;2.00;94.60;;;;;;5039831;28;20033;-70
2021/01/06 05:21:39;;;;;;;119.20;38.10;;;2.00;94.50;;;;;;5036640;28;20116;-72
2021/01/06 05:24:22;;;;;;;107.15;33.65;;;2.00;94.50;;;;;;5043495;28;20133;-71
2021/01/06 05:27:13;;;;;;;94.60;34.00;;;2.00;94.70;;;;;;5046195;28;20029;-70
2021/01/06 05:29:47;;;;;;;116.20;39.13;;;2.10;94.80;;;;;;5039423;28;20030;-67
2021/01/06 05:32:24;;;;;;;106.73;36.23;;;2.10;94.70;;;;;;5039363;28;20033;-70
2021/01/06 05:35:00;;;;;;;104.60;34.28;;;2.10;94.90;;;;;;5037422;28;20286;-71
2021/01/06 05:37:26;;;;;;;91.47;31.27;;;2.10;94.60;;;;;;5036068;28;20108;-69
2021/01/06 05:39:56;;;;;;;88.65;30.60;;;2.10;94.60;;;;;;5038308;28;20044;-70
2021/01/06 05:42:27;;;;;;;111.75;37.05;;;2.10;94.70;;;;;;5049485;28;20439;-68
2021/01/06 05:44:56;;;;;;;107.25;34.10;;;2.10;94.60;;;;;;5037877;28;20395;-69
2021/01/06 05:47:39;;;;;;;113.13;35.38;;;2.10;94.60;;;;;;5043143;28;20459;-71
2021/01/06 05:50:17;;;;;;;107.25;35.03;;;2.10;94.60;;;;;;5040278;28;20108;-70
2021/01/06 05:52:51;;;;;;;88.47;29.00;;;2.10;94.70;;;;;;5037390;28;20046;-70
2021/01/06 05:55:21;;;;;;;116.30;35.53;;;2.10;94.60;;;;;;5031247;28;20463;-70
2021/01/06 05:58:02;;;;;;;140.25;40.53;;;2.10;94.50;;;;;;5046962;28;20033;-70
2021/01/06 06:00:43;;;;;;;147.55;39.15;;;2.10;94.70;;;;;;5044364;28;20471;-71
2021/01/06 06:03:38;;;;;;;145.75;42.85;;;2.10;94.70;;;;;;5040753;28;20356;-73
2021/01/06 06:06:07;;;;;;;170.85;46.03;;;2.10;94.80;;;;;;5040543;28;20048;-72
2021/01/06 06:08:43;;;;;;;207.38;51.40;;;2.10;94.80;;;;;;5049370;28;20033;-71
2021/01/06 06:11:41;;;;;;;163.85;43.58;;;2.10;94.80;;;;;;5049788;28;20467;-78
2021/01/06 06:14:31;;;;;;;172.48;43.15;;;2.10;94.90;;;;;;5046181;28;20040;-77
2021/01/06 06:17:16;;;;;;;234.85;51.08;;;2.10;94.80;;;;;;5042144;28;20028;-68
2021/01/06 06:20:09;;;;;;;185.63;46.88;;;2.10;94.90;;;;;;5048475;28;20463;-67
2021/01/06 06:22:56;;;;;;;147.05;38.80;;;2.20;94.90;;;;;;5046929;28;20116;-68
2021/01/06 06:25:31;;;;;;;167.13;42.78;;;2.20;94.90;;;;;;5047046;28;20099;-68
2021/01/06 06:28:40;;;;;;;256.85;54.47;;;2.10;94.80;;;;;;5040628;28;20109;-68
2021/01/06 06:31:30;;;;;;;250.95;59.55;;;2.20;94.90;;;;;;5017453;28;20045;-69
2021/01/06 06:34:08;;;;;;;225.45;54.70;;;2.20;95.10;;;;;;5051604;28;20025;-70
2021/01/06 06:36:37;;;;;;;137.82;35.55;;;2.20;95.20;;;;;;5053506;28;20029;-70
2021/01/06 06:39:40;;;;;;;290.33;57.92;;;2.20;95.20;;;;;;5053133;28;20486;-68
2021/01/06 06:42:26;;;;;;;156.00;35.80;;;2.30;95.30;;;;;;5054404;28;20128;-67
2021/01/06 06:44:58;;;;;;;193.23;38.35;;;2.30;95.30;;;;;;5041417;28;20097;-69
2021/01/06 06:48:12;;;;;;;207.13;40.78;;;2.30;95.10;;;;;;5052233;28;20549;-69
2021/01/06 06:50:52;;;;;;;193.15;41.88;;;2.30;95.00;;;;;;5053347;28;20387;-67
2021/01/06 06:53:46;;;;;;;245.25;49.15;;;2.30;95.20;;;;;;5041437;28;20059;-68
2021/01/06 06:56:30;;;;;;;188.15;40.65;;;2.30;95.30;;;;;;5054311;28;20057;-67
2021/01/06 06:59:11;;;;;;;188.95;38.72;;;2.40;95.30;;;;;;5053503;28;20383;-68
2021/01/06 07:01:42;;;;;;;167.52;37.08;;;2.40;95.20;;;;;;5053339;28;20036;-67
2021/01/06 07:04:27;;;;;;;190.45;42.92;;;2.40;95.10;;;;;;5053441;28;20029;-67
2021/01/06 07:06:59;;;;;;;264.80;49.63;;;2.40;95.20;;;;;;5041370;28;20017;-68
2021/01/06 07:09:31;;;;;;;185.65;48.10;;;2.50;95.60;;;;;;5054525;28;20092;-67
2021/01/06 07:12:10;;;;;;;336.98;61.58;;;2.50;95.40;;;;;;5039444;28;20468;-68
2021/01/06 07:14:54;;;;;;;281.17;54.63;;;2.50;95.50;;;;;;5052619;28;20093;-69
2021/01/06 07:17:37;;;;;;;227.48;51.33;;;2.60;95.50;;;;;;5053321;28;20025;-70
2021/01/06 07:20:08;;;;;;;255.73;54.67;;;2.60;95.50;;;;;;5052565;28;20063;-70
2021/01/06 07:22:42;;;;;;;159.13;38.45;;;2.60;95.50;;;;;;5052981;28;20167;-70
2021/01/06 07:25:17;;;;;;;259.42;48.22;;;2.70;95.60;;;;;;5052829;28;20025;-70
2021/01/06 07:27:49;;;;;;;482.17;75.38;;;2.70;95.50;;;;;;5053297;28;20164;-70
2021/01/06 07:30:33;;;;;;;246.00;50.63;;;2.80;95.50;;;;;;5054498;28;20033;-70
2021/01/06 07:33:01;;;;;;;196.93;40.08;;;2.80;95.50;;;;;;5039652;28;20025;-72
2021/01/06 07:35:28;;;;;;;258.05;55.35;;;2.80;95.50;;;;;;5045545;28;20467;-76
2021/01/06 07:38:02;;;;;;;296.27;60.38;;;2.80;95.50;;;;;;5043958;28;20025;-74
2021/01/06 07:40:43;;;;;;;405.63;77.53;;;2.90;95.50;;;;;;5036962;28;20140;-74
2021/01/06 07:43:28;;;;;;;297.73;62.63;;;2.90;95.50;;;;;;5045731;28;20080;-74
2021/01/06 07:46:00;;;;;;;356.05;65.53;;;2.90;95.40;;;;;;5046775;28;20341;-70
2021/01/06 07:48:34;;;;;;;267.48;53.70;;;2.90;95.40;;;;;;5044006;28;20031;-71
2021/01/06 07:51:29;;;;;;;326.20;69.25;;;2.90;95.40;;;;;;5041349;28;20037;-71
2021/01/06 07:54:01;;;;;;;340.90;60.75;;;2.90;95.50;;;;;;5044706;28;20041;-71
2021/01/06 07:56:49;;;;;;;350.80;66.10;;;3.00;95.50;;;;;;5049471;28;20113;-73
2021/01/06 07:59:34;;;;;;;271.05;52.22;;;3.00;95.60;;;;;;5045878;28;20032;-75
2021/01/06 08:02:11;;;;;;;275.35;50.53;;;3.00;95.70;;;;;;5053256;28;20036;-76
2021/01/06 08:04:54;;;;;;;284.60;49.85;;;3.10;95.60;;;;;;5052070;28;20048;-73
2021/01/06 08:07:23;;;;;;;215.27;50.95;;;3.10;95.60;;;;;;5056302;28;20016;-74
2021/01/06 08:09:54;;;;;;;231.32;53.10;;;3.10;95.60;;;;;;5045728;28;20021;-74
2021/01/06 08:12:21;;;;;;;299.35;54.22;;;3.20;95.70;;;;;;5047647;28;20021;-73
2021/01/06 08:14:47;;;;;;;262.98;60.63;;;3.20;95.60;;;;;;5055131;28;20595;-74
2021/01/06 08:17:41;;;;;;;218.55;49.90;;;3.20;95.70;;;;;;5048075;28;20029;-74
2021/01/06 08:20:11;;;;;;;205.32;48.63;;;3.20;95.90;;;;;;5055890;28;20037;-73
2021/01/06 08:22:47;;;;;;;183.82;46.65;;;3.30;95.90;;;;;;5038148;28;20473;-72
2021/01/06 08:25:24;;;;;;;185.93;42.10;;;3.40;95.80;;;;;;5048429;28;20037;-71
2021/01/06 08:27:50;;;;;;;178.13;41.97;;;3.40;95.80;;;;;;5035590;28;20030;-78
2021/01/06 08:30:25;;;;;;;170.93;40.08;;;3.40;95.60;;;;;;5039374;28;20041;-73
2021/01/06 08:33:09;;;;;;;175.77;42.70;;;3.50;95.60;;;;;;5034499;28;20128;-68
2021/01/06 08:35:40;;;;;;;211.93;50.65;;;3.50;95.70;;;;;;5042978;28;20029;-70
2021/01/06 08:38:31;;;;;;;163.52;45.42;;;3.50;95.60;;;;;;5044349;28;20112;-69
2021/01/06 08:41:18;;;;;;;164.02;42.15;;;3.50;96.10;;;;;;5043395;28;20459;-69
2021/01/06 08:43:44;;;;;;;214.90;52.30;;;3.60;95.90;;;;;;5049919;28;20036;-69
2021/01/06 08:46:28;;;;;;;224.15;47.78;;;3.70;95.90;;;;;;5042696;28;20102;-68
2021/01/06 08:49:22;;;;;;;185.68;38.85;;;3.70;95.90;;;;;;5039609;28;20384;-69
2021/01/06 08:51:48;;;;;;;168.77;38.15;;;3.80;96.00;;;;;;5045312;28;20068;-69
2021/01/06 08:54:16;;;;;;;192.82;39.25;;;3.80;95.70;;;;;;5032999;28;20029;-69
2021/01/06 08:56:42;;;;;;;162.85;39.25;;;3.80;95.70;;;;;;5044762;28;20068;-69
2021/01/06 08:59:24;;;;;;;190.45;42.22;;;3.80;95.60;;;;;;5048088;28;20053;-69
2021/01/06 09:01:57;;;;;;;157.70;40.05;;;3.90;95.80;;;;;;5039266;28;20025;-70
2021/01/06 09:04:37;;;;;;;169.85;43.97;;;3.90;96.00;;;;;;5036037;28;20032;-69
2021/01/06 09:07:03;;;;;;;194.20;52.13;;;3.90;95.70;;;;;;5051059;28;20086;-68
2021/01/06 09:09:59;;;;;;;182.40;55.20;;;4.00;95.80;;;;;;5048297;28;20418;-68
2021/01/06 09:12:49;;;;;;;152.05;51.03;;;4.00;95.80;;;;;;5047662;28;20041;-69
2021/01/06 09:15:51;;;;;;;153.82;48.63;;;4.00;95.70;;;;;;5047089;28;20110;-71
2021/01/06 09:18:47;;;;;;;142.90;43.50;;;4.00;95.60;;;;;;5036031;28;20047;-69
2021/01/06 09:21:23;;;;;;;123.35;38.05;;;4.10;95.90;;;;;;5037582;28;20083;-69
2021/01/06 09:23:51;;;;;;;;;;;4.10;95.70;;;;;;5035189;28;20045;-82
2021/01/06 09:26:21;;;;;;;152.02;45.20;;;4.20;95.50;;;;;;5038069;28;20004;-70
2021/01/06 09:29:00;;;;;;;115.60;37.90;;;4.10;95.40;;;;;;5048366;28;20394;-70
2021/01/06 09:31:27;;;;;;;102.47;37.72;;;4.20;95.50;;;;;;5038946;28;20045;-69
2021/01/06 09:33:55;;;;;;;121.25;42.70;;;4.10;95.50;;;;;;5045742;28;20025;-69
2021/01/06 09:36:23;;;;;;;114.28;37.83;;;4.20;95.50;;;;;;5048470;28;20026;-70
2021/01/06 09:38:51;;;;;;;106.43;34.78;;;4.20;95.50;;;;;;5039747;28;20100;-69
2021/01/06 09:41:30;;;;;;;104.32;33.03;;;4.10;95.20;;;;;;5045314;28;20477;-69
2021/01/06 09:44:09;;;;;;;83.65;27.58;;;4.10;95.30;;;;;;5046763;28;20025;-69
2021/01/06 09:46:57;;;;;;;80.45;27.13;;;4.10;95.40;;;;;;5036644;28;20037;-69
2021/01/06 09:49:47;;;;;;;68.88;26.35;;;4.20;95.50;;;;;;5048041;28;20044;-70
2021/01/06 09:52:27;;;;;;;76.13;26.10;;;4.20;95.50;;;;;;5039149;28;20045;-69
2021/01/06 09:54:56;;;;;;;83.60;26.17;;;4.20;95.60;;;;;;5041965;28;20032;-69
2021/01/06 09:57:23;;;;;;;79.35;28.30;;;4.30;95.50;;;;;;5049496;28;20127;-70
2021/01/06 09:59:55;;;;;;;85.63;29.13;;;4.30;95.50;;;;;;5048843;28;20021;-69
2021/01/06 10:02:26;;;;;;;163.93;50.78;;;4.30;95.40;;;;;;5051050;28;20123;-69
2021/01/06 10:05:17;;;;;;;165.07;52.67;;;4.30;95.40;;;;;;5060507;28;20033;-71
2021/01/06 10:07:58;;;;;;;179.50;50.90;;;4.30;95.30;;;;;;5072373;28;20115;-70
2021/01/06 10:10:31;;;;;;;133.57;42.40;;;4.20;95.40;;;;;;5055839;28;20037;-69
2021/01/06 10:13:15;;;;;;;121.68;41.90;;;4.20;95.40;;;;;;5049475;28;20032;-70
2021/01/06 10:16:02;;;;;;;108.35;40.13;;;4.30;95.50;;;;;;5041466;28;20029;-71
2021/01/06 10:19:04;;;;;;;132.45;43.58;;;4.30;95.40;;;;;;5052130;28;20043;-71
2021/01/06 10:21:57;;;;;;;119.70;43.80;;;4.40;95.60;;;;;;5046155;28;20414;-70
2021/01/06 10:25:00;;;;;;;120.85;43.03;;;4.40;95.60;;;;;;5050005;28;20033;-70
2021/01/06 10:27:39;;;;;;;130.98;41.67;;;4.40;95.50;;;;;;5044929;28;20037;-70
2021/01/06 10:30:17;;;;;;;116.95;39.75;;;4.40;95.60;;;;;;5047092;28;20025;-70
2021/01/06 10:32:46;;;;;;;103.30;36.92;;;4.50;95.60;;;;;;5049845;28;20033;-70
2021/01/06 10:35:30;;;;;;;112.72;40.05;;;4.50;95.60;;;;;;5043245;28;20434;-71
2021/01/06 10:37:57;;;;;;;111.07;38.75;;;4.60;95.60;;;;;;5041996;28;20475;-71
2021/01/06 10:40:37;;;;;;;120.82;39.40;;;4.60;95.50;;;;;;5037385;28;20060;-71
2021/01/06 10:43:34;;;;;;;103.60;32.97;;;4.60;95.20;;;;;;5041793;28;20380;-70
2021/01/06 10:46:01;;;;;;;138.93;44.08;;;4.50;95.10;;;;;;5051661;28;20471;-70
2021/01/06 10:48:47;;;;;;;201.10;58.13;;;4.50;95.10;;;;;;5049875;28;20044;-71
2021/01/06 10:51:51;;;;;;;126.88;42.13;;;4.50;95.20;;;;;;5054017;28;20036;-71
2021/01/06 10:54:40;;;;;;;163.27;44.67;;;4.50;95.30;;;;;;5048766;28;20037;-68
2021/01/06 10:57:15;;;;;;;214.38;56.90;;;4.50;95.50;;;;;;5046466;28;20083;-70
2021/01/06 11:00:01;;;;;;;155.03;48.37;;;4.60;95.60;;;;;;5054123;28;20036;-69
2021/01/06 11:02:40;;;;;;;138.93;42.25;;;4.60;95.70;;;;;;5056025;28;20041;-71
2021/01/06 11:05:21;;;;;;;140.65;46.75;;;4.60;95.60;;;;;;5041648;28;20028;-70
2021/01/06 11:08:35;;;;;;;164.85;55.95;;;4.70;95.80;;;;;;5048938;28;20102;-75
2021/01/06 11:11:13;;;;;;;169.93;53.33;;;4.70;95.60;;;;;;5050259;28;20067;-72
2021/01/06 11:14:06;;;;;;;159.00;49.65;;;4.70;95.60;;;;;;5042225;28;20083;-72
2021/01/06 11:17:09;;;;;;;159.27;49.35;;;4.70;95.50;;;;;;5047506;28;20028;-72
2021/01/06 11:19:41;;;;;;;167.77;49.10;;;4.70;95.40;;;;;;5055264;28;20031;-71
2021/01/06 11:22:30;;;;;;;143.23;42.60;;;4.70;95.40;;;;;;5045052;28;20060;-71
2021/01/06 11:25:01;;;;;;;130.65;37.42;;;4.70;95.20;;;;;;5052600;28;20086;-78
2021/01/06 11:27:44;;;;;;;118.32;37.95;;;4.70;95.20;;;;;;5046908;28;20032;-70
2021/01/06 11:30:25;;;;;;;138.73;41.42;;;4.70;95.40;;;;;;5048725;28;20772;-72
2021/01/06 11:33:13;;;;;;;135.63;30.67;;;4.70;95.40;;;;;;5043531;28;20025;-71
2021/01/06 11:35:51;;;;;;;237.25;39.53;;;4.70;95.30;;;;;;5043895;28;20064;-72
2021/01/06 11:38:42;;;;;;;122.80;27.23;;;4.70;95.20;;;;;;5040358;28;20545;-72
2021/01/06 11:41:13;;;;;;;315.30;37.90;;;4.70;95.10;;;;;;5046841;28;20061;-70
2021/01/06 11:43:52;;;;;;;226.45;36.40;;;4.70;95.20;;;;;;5042066;28;20025;-70
2021/01/06 11:46:33;;;;;;;264.00;38.45;;;4.70;95.30;;;;;;5042540;28;20471;-71
2021/01/06 11:49:18;;;;;;;147.82;33.58;;;4.70;95.40;;;;;;5046702;28;20028;-71
2021/01/06 11:52:28;;;;;;;175.10;36.27;;;4.80;95.40;;;;;;5051844;28;20037;-70
2021/01/06 11:55:40;;;;;;;226.40;40.13;;;4.80;95.30;;;;;;5026307;28;20031;-70
2021/01/06 11:58:28;;;;;;;205.18;43.47;;;4.70;95.10;;;;;;5030063;28;20480;-71
2021/01/06 12:01:18;;;;;;;227.73;43.03;;;4.70;95.10;;;;;;5044945;28;20047;-71
2021/01/06 12:04:15;;;;;;;218.38;43.40;;;4.60;95.10;;;;;;5042242;28;20067;-71
2021/01/06 12:06:55;;;;;;;208.50;44.60;;;4.60;95.10;;;;;;5042790;28;20026;-71
2021/01/06 12:09:49;;;;;;;180.48;45.10;;;4.60;95.00;;;;;;5046856;28;20083;-71
2021/01/06 12:12:39;;;;;;;206.15;53.15;;;4.70;95.10;;;;;;5038793;28;20034;-72
2021/01/06 12:15:33;;;;;;;332.92;63.38;;;4.70;95.00;;;;;;5042265;28;20096;-71
2021/01/06 12:18:04;;;;;;;273.50;61.50;;;4.60;95.00;;;;;;5035263;28;20033;-72
2021/01/06 12:20:36;;;;;;;253.20;58.55;;;4.60;95.00;;;;;;5044330;28;20020;-70
2021/01/06 12:23:14;;;;;;;298.70;57.58;;;4.60;95.10;;;;;;5037862;28;20467;-72
2021/01/06 12:25:53;;;;;;;181.80;48.42;;;4.50;95.00;;;;;;5038429;28;20368;-71
2021/01/06 12:28:42;;;;;;;219.35;53.03;;;4.60;95.20;;;;;;5059243;28;20123;-71
2021/01/06 12:31:25;;;;;;;204.50;55.63;;;4.60;95.40;;;;;;5040559;28;20041;-71
2021/01/06 12:34:13;;;;;;;185.10;45.65;;;4.60;95.30;;;;;;5034795;28;20036;-72
2021/01/06 12:37:06;;;;;;;206.63;47.83;;;4.60;95.30;;;;;;5039759;28;20208;-71
2021/01/06 12:40:03;;;;;;;186.45;46.33;;;4.70;95.40;;;;;;5039038;28;20025;-70
2021/01/06 12:42:37;;;;;;;247.10;53.10;;;4.70;95.40;;;;;;5044485;28;20024;-71
2021/01/06 12:45:15;;;;;;;229.50;50.20;;;4.70;95.40;;;;;;5040698;28;20116;-71
2021/01/06 12:47:53;;;;;;;199.70;51.60;;;4.70;95.30;;;;;;5039071;28;20118;-71
2021/01/06 12:50:32;;;;;;;298.27;61.35;;;4.70;95.30;;;;;;5036843;28;20033;-70
2021/01/06 12:53:19;;;;;;;198.57;50.45;;;4.80;95.20;;;;;;5036851;28;20128;-71
2021/01/06 12:56:24;;;;;;;175.27;48.08;;;4.70;95.20;;;;;;5036500;28;20464;-72
2021/01/06 12:59:02;;;;;;;191.48;50.25;;;4.70;95.20;;;;;;5043907;28;20047;-70
2021/01/06 13:01:44;;;;;;;174.45;50.15;;;4.70;95.20;;;;;;5039248;28;20491;-70
2021/01/06 13:04:12;;;;;;;151.32;48.05;;;4.70;95.20;;;;;;5038829;28;20112;-71
2021/01/06 13:07:10;;;;;;;159.15;49.25;;;4.70;95.40;;;;;;5041157;28;20040;-72
2021/01/06 13:09:42;;;;;;;136.70;49.40;;;4.70;95.60;;;;;;5038786;28;20041;-71
2021/01/06 13:12:10;;;;;;;140.52;47.15;;;4.80;95.70;;;;;;5038267;28;20052;-71
2021/01/06 13:14:54;;;;;;;168.05;52.80;;;4.80;95.90;;;;;;5047302;28;20020;-72
2021/01/06 13:17:37;;;;;;;158.35;48.67;;;4.90;95.90;;;;;;5040940;28;20022;-72
2021/01/06 13:20:13;;;;;;;149.40;50.53;;;5.00;95.90;;;;;;5042194;28;20475;-72
2021/01/06 13:22:42;;;;;;;192.88;59.65;;;5.00;95.90;;;;;;5053771;28;20031;-71